Time;durP1;ratioP1;P1;durP2;ratioP2;P2;SDS_P1;SDS_P2;PMS_P1;PMS_P2;Temp;Humidity;BMP_temperature;BMP_pressure;BME280_temperature;BME280_humidity;BME280_pressure;Samples;Min_cycle;Max_cycle;Signal;HPM_P1;HPM_P2
2022/09/17 00:00:14;;;;;;;5.30;0.90;;;;;;;20.21;45.05;101488.63;5013200;28;20021;-77
2022/09/17 00:02:42;;;;;;;11.17;1.20;;;;;;;20.25;44.95;101487.56;5013024;28;20371;-77
2022/09/17 00:05:08;;;;;;;7.17;1.00;;;;;;;20.20;44.62;101492.22;5012424;28;20033;-78
2022/09/17 00:07:34;;;;;;;8.30;1.30;;;;;;;20.17;45.68;101496.72;5026023;28;20104;-78
2022/09/17 00:09:59;;;;;;;7.03;1.10;;;;;;;20.33;46.24;101504.06;5011302;28;20117;-79
2022/09/17 00:12:24;;;;;;;10.67;1.60;;;;;;;20.32;46.57;101515.63;5015914;28;20078;-78
2022/09/17 00:14:50;;;;;;;11.27;1.10;;;;;;;19.80;47.07;101503.47;5017829;28;20028;-78
2022/09/17 00:17:15;;;;;;;9.20;1.33;;;;;;;20.04;47.52;101511.38;5047184;28;20026;-77
2022/09/17 00:19:41;;;;;;;9.97;1.10;;;;;;;20.60;45.58;101495.91;5011784;28;20032;-78
2022/09/17 00:22:06;;;;;;;10.63;1.37;;;;;;;19.76;47.20;101493.84;5021607;28;20039;-77
2022/09/17 00:24:31;;;;;;;11.73;1.50;;;;;;;19.72;47.03;101499.34;5027817;28;20497;-77
2022/09/17 00:26:57;;;;;;;8.67;1.00;;;;;;;20.74;45.17;101501.50;5022460;28;20047;-78
2022/09/17 00:29:22;;;;;;;13.32;1.98;;;;;;;20.80;44.78;101505.69;5017963;28;20030;-77
2022/09/17 00:31:48;;;;;;;11.13;1.88;;;;;;;21.07;44.42;101508.97;5055526;28;20216;-78
2022/09/17 00:34:14;;;;;;;11.57;1.30;;;;;;;20.61;45.13;101511.75;5030014;28;20021;-77
2022/09/17 00:36:40;;;;;;;11.27;1.38;;;;;;;20.86;45.43;101523.19;5030851;28;20036;-78
2022/09/17 00:39:08;;;;;;;14.70;3.15;;;;;;;20.97;44.16;101521.78;5030481;28;20025;-78
2022/09/17 00:41:35;;;;;;;12.98;1.70;;;;;;;19.99;47.23;101524.84;5028816;28;20026;-78
2022/09/17 00:44:39;;;;;;;19.97;2.73;;;;;;;19.69;47.73;101526.84;5015149;28;20137;-78
2022/09/17 00:47:10;;;;;;;19.52;1.60;;;;;;;18.76;48.51;101519.44;5027374;28;20038;-77
2022/09/17 00:49:36;;;;;;;19.20;2.20;;;;;;;18.79;48.92;101516.72;5027646;28;20508;-78
2022/09/17 00:52:08;;;;;;;10.97;1.77;;;;;;;17.46;51.85;101518.09;5038152;28;20033;-78
2022/09/17 00:54:38;;;;;;;11.90;1.83;;;;;;;18.38;50.54;101503.06;5033208;28;20175;-78
2022/09/17 00:57:03;;;;;;;6.67;2.50;;;;;;;18.92;49.52;101519.00;5020966;28;20021;-77
2022/09/17 00:59:29;;;;;;;9.57;1.97;;;;;;;18.27;50.41;101523.69;5015350;28;20083;-78
2022/09/17 01:01:55;;;;;;;7.47;0.93;;;;;;;18.13;50.84;101519.72;5033268;28;20022;-77
2022/09/17 01:04:25;;;;;;;5.43;0.93;;;;;;;18.49;50.18;101510.63;5015327;28;20762;-78
2022/09/17 01:07:04;;;;;;;9.73;1.00;;;;;;;17.86;50.62;101504.63;5043986;28;20587;-77
2022/09/17 01:09:47;;;;;;;6.00;0.97;;;;;;;19.08;47.94;101493.69;5025406;28;20033;-77
2022/09/17 01:12:20;;;;;;;6.07;0.90;;;;;;;19.49;46.44;101491.34;5031451;28;20060;-77
2022/09/17 01:15:01;;;;;;;12.02;1.40;;;;;;;19.54;46.54;101482.34;5031972;28;20104;-78
2022/09/17 01:17:58;;;;;;;7.20;1.20;;;;;;;20.34;45.20;101492.53;5037053;28;20033;-78
2022/09/17 01:21:06;;;;;;;8.10;0.83;;;;;;;20.61;45.42;101500.28;5023327;28;20029;-77
2022/09/17 01:23:36;;;;;;;9.60;1.30;;;;;;;20.65;44.80;101499.25;5011692;28;20038;-77
2022/09/17 01:26:20;;;;;;;8.13;1.83;;;;;;;20.79;43.51;101499.53;5000237;28;20105;-78
2022/09/17 01:28:56;;;;;;;11.57;1.53;;;;;;;20.54;44.61;101504.09;5011685;28;20053;-78
2022/09/17 01:31:29;;;;;;;3.57;0.80;;;;;;;21.02;43.84;101511.00;5029393;28;20054;-77
2022/09/17 01:34:22;;;;;;;8.30;1.23;;;;;;;20.00;45.38;101518.63;5014255;28;20034;-78
2022/09/17 01:36:59;;;;;;;6.43;1.23;;;;;;;20.77;43.30;101513.81;5027637;28;20033;-77
2022/09/17 01:40:01;;;;;;;4.20;0.87;;;;;;;20.10;43.91;101527.09;5017360;28;20112;-78
2022/09/17 01:42:43;;;;;;;9.13;1.50;;;;;;;18.87;46.83;101521.75;5023028;28;20049;-78
2022/09/17 01:45:36;;;;;;;10.77;1.70;;;;;;;18.95;47.11;101526.81;5025616;28;20040;-78
2022/09/17 01:48:08;;;;;;;9.63;1.33;;;;;;;19.13;46.50;101523.53;5046813;28;20049;-77
2022/09/17 01:50:41;;;;;;;6.77;1.40;;;;;;;20.22;45.22;101522.22;5015591;28;20542;-78
2022/09/17 01:53:09;;;;;;;12.50;1.40;;;;;;;20.03;45.38;101520.28;5032661;28;20076;-78
2022/09/17 01:55:38;;;;;;;8.60;1.27;;;;;;;20.13;45.35;101520.78;5020238;28;20057;-78
2022/09/17 01:58:16;;;;;;;7.63;1.10;;;;;;;20.55;44.81;101517.31;5032185;28;20120;-78
2022/09/17 02:00:50;;;;;;;10.50;1.20;;;;;;;20.12;45.70;101519.91;5046652;28;20034;-78
2022/09/17 02:03:29;;;;;;;8.10;1.10;;;;;;;20.45;44.54;101516.81;5047757;28;20060;-78
2022/09/17 02:06:05;;;;;;;8.50;1.00;;;;;;;20.40;44.57;101524.16;5013112;28;20018;-78
2022/09/17 02:08:55;;;;;;;11.10;1.43;;;;;;;20.39;44.56;101522.41;5030677;28;20033;-77
2022/09/17 02:11:21;;;;;;;10.77;1.13;;;;;;;20.71;44.48;101533.53;5048481;28;20460;-78
2022/09/17 02:13:55;;;;;;;14.90;2.40;;;;;;;20.23;45.57;101559.31;5040640;28;20108;-78
2022/09/17 02:16:26;;;;;;;10.60;1.90;;;;;;;19.30;47.64;101545.91;5036478;28;20026;-79
2022/09/17 02:18:52;;;;;;;7.83;2.50;;;;;;;18.17;50.39;101540.78;5029678;28;20071;-79
2022/09/17 02:21:26;;;;;;;10.90;1.40;;;;;;;19.57;47.77;101528.16;5033731;28;20037;-78
2022/09/17 02:24:12;;;;;;;9.93;1.50;;;;;;;19.00;48.41;101540.78;5021965;28;20034;-78
2022/09/17 02:26:44;;;;;;;13.87;1.90;;;;;;;19.45;46.98;101528.59;5014721;28;20029;-78
2022/09/17 02:29:21;;;;;;;10.45;1.65;;;;;;;19.33;47.75;101527.28;5034756;28;20513;-77
2022/09/17 02:31:46;;;;;;;19.97;2.20;;;;;;;19.88;46.93;101527.06;5032946;28;20063;-77
2022/09/17 02:34:13;;;;;;;15.60;1.77;;;;;;;20.45;46.38;101527.44;5016686;28;20052;-78
2022/09/17 02:36:38;;;;;;;15.80;2.93;;;;;;;20.40;46.78;101531.22;5029339;28;20052;-78
2022/09/17 02:39:03;;;;;;;12.23;2.03;;;;;;;20.48;44.94;101530.00;5032841;28;20025;-78
2022/09/17 02:41:41;;;;;;;14.43;2.20;;;;;;;20.41;45.09;101536.47;5018891;28;20030;-78
2022/09/17 02:44:49;;;;;;;19.77;2.37;;;;;;;20.41;44.56;101531.16;5058195;28;20465;-77
2022/09/17 02:47:36;;;;;;;15.63;1.97;;;;;;;20.11;46.55;101539.44;5008790;28;20172;-78
2022/09/17 02:50:39;;;;;;;13.37;2.43;;;;;;;20.15;45.35;101546.34;5027051;28;20083;-78
2022/09/17 02:53:44;;;;;;;18.90;2.50;;;;;;;18.98;47.69;101548.75;5033053;28;20026;-77
2022/09/17 02:56:37;;;;;;;13.93;1.80;;;;;;;19.28;47.37;101543.31;5018770;28;20034;-76
2022/09/17 02:59:20;;;;;;;19.00;3.00;;;;;;;19.67;45.72;101539.28;5012667;28;20513;-78
2022/09/17 03:01:54;;;;;;;8.15;1.60;;;;;;;19.11;45.71;101546.56;5024333;28;20393;-77
2022/09/17 03:04:22;;;;;;;21.50;1.97;;;;;;;19.65;44.55;101535.84;5012373;28;20117;-77
2022/09/17 03:06:48;;;;;;;15.67;1.90;;;;;;;19.94;43.96;101536.56;5012576;28;20033;-77
2022/09/17 03:09:14;;;;;;;12.33;2.77;;;;;;;19.55;43.70;101550.34;5011228;28;20026;-77
2022/09/17 03:11:41;;;;;;;15.50;1.67;;;;;;;19.44;43.66;101541.00;5012141;28;20124;-77
2022/09/17 03:14:06;;;;;;;7.73;2.33;;;;;;;18.60;44.79;101539.41;5027450;28;20056;-77
2022/09/17 03:16:31;;;;;;;14.07;1.47;;;;;;;19.52;42.87;101535.41;5021737;28;20489;-77
2022/09/17 03:18:57;;;;;;;8.37;1.10;;;;;;;20.58;42.14;101532.25;5024690;28;20033;-77
2022/09/17 03:21:22;;;;;;;11.97;1.77;;;;;;;20.49;42.63;101529.06;5044108;28;20113;-77
2022/09/17 03:23:48;;;;;;;8.40;1.03;;;;;;;21.19;41.46;101532.34;5018433;28;20018;-77
2022/09/17 03:26:13;;;;;;;7.83;1.67;;;;;;;20.46;41.20;101534.50;5015850;28;20083;-77
2022/09/17 03:28:38;;;;;;;17.83;2.17;;;;;;;19.66;42.99;101542.88;5027824;28;20500;-77
2022/09/17 03:31:04;;;;;;;18.07;1.83;;;;;;;19.02;45.09;101548.66;5011476;28;20120;-77
2022/09/17 03:33:30;;;;;;;10.47;2.50;;;;;;;18.89;45.88;101525.25;5012171;28;20033;-77
2022/09/17 03:35:56;;;;;;;9.80;1.50;;;;;;;18.82;45.11;101529.84;5013325;28;20034;-78
2022/09/17 03:38:21;;;;;;;6.67;1.00;;;;;;;19.29;44.74;101549.50;5022247;28;20082;-78
2022/09/17 03:40:58;;;;;;;8.17;1.70;;;;;;;18.50;46.71;101545.94;5033335;28;20082;-77
2022/09/17 03:43:24;;;;;;;16.80;2.70;;;;;;;18.94;47.71;101523.28;5031229;28;20637;-78
2022/09/17 03:45:49;;;;;;;11.67;1.57;;;;;;;18.69;48.23;101533.81;5033190;28;20109;-79
2022/09/17 03:48:14;;;;;;;16.20;1.93;;;;;;;19.22;47.94;101537.38;5017710;28;20375;-77
2022/09/17 03:50:40;;;;;;;9.47;1.30;;;;;;;19.31;47.39;101521.16;5012521;28;20105;-78
2022/09/17 03:53:05;;;;;;;13.23;1.70;;;;;;;18.73;48.34;101527.50;5023892;28;20068;-78
2022/09/17 03:55:30;;;;;;;12.10;1.67;;;;;;;19.19;47.57;101518.94;5023935;28;20074;-78
2022/09/17 03:57:56;;;;;;;16.90;1.70;;;;;;;19.25;47.26;101519.59;5034538;28;20021;-78
2022/09/17 04:00:21;;;;;;;8.30;1.13;;;;;;;19.55;46.51;101523.81;5032621;28;20478;-78
2022/09/17 04:02:46;;;;;;;7.90;1.37;;;;;;;18.90;47.15;101526.09;5030612;28;20036;-78
2022/09/17 04:05:12;;;;;;;9.50;1.73;;;;;;;18.07;47.77;101530.47;5012680;28;20029;-77
2022/09/17 04:07:40;;;;;;;9.70;1.27;;;;;;;17.72;48.28;101539.41;5030418;28;20032;-78
2022/09/17 04:10:06;;;;;;;6.87;1.40;;;;;;;18.91;46.44;101538.44;5016995;28;20080;-79
2022/09/17 04:12:31;;;;;;;7.07;1.30;;;;;;;19.42;45.81;101542.81;5011556;28;20103;-78
2022/09/17 04:14:57;;;;;;;5.47;1.63;;;;;;;19.55;44.83;101540.63;5047526;28;20136;-78
2022/09/17 04:17:22;;;;;;;11.27;1.17;;;;;;;18.54;45.59;101550.22;5048309;28;20025;-78
2022/09/17 04:19:48;;;;;;;11.70;1.27;;;;;;;18.28;47.24;101551.88;5014082;28;20022;-77
2022/09/17 04:22:14;;;;;;;9.20;1.57;;;;;;;19.31;45.89;101545.84;5031523;28;20493;-77
2022/09/17 04:24:39;;;;;;;14.37;1.77;;;;;;;19.72;45.46;101544.44;5028453;28;20025;-76
2022/09/17 04:27:05;;;;;;;6.03;1.00;;;;;;;19.48;45.23;101545.28;5031534;28;20021;-78
2022/09/17 04:29:30;;;;;;;7.07;1.37;;;;;;;19.74;45.00;101545.22;5024409;28;20033;-77
2022/09/17 04:31:55;;;;;;;11.87;1.87;;;;;;;20.03;44.46;101546.81;5013271;28;20032;-77
2022/09/17 04:34:21;;;;;;;11.67;1.80;;;;;;;20.34;43.68;101556.22;5029653;28;20505;-77
2022/09/17 04:36:46;;;;;;;7.93;1.07;;;;;;;20.51;43.07;101547.56;5019526;28;20026;-77
2022/09/17 04:39:11;;;;;;;8.37;1.20;;;;;;;20.51;43.59;101552.88;5050795;28;20111;-77
2022/09/17 04:41:37;;;;;;;9.63;1.20;;;;;;;20.45;44.42;101556.66;5043630;28;20037;-77
2022/09/17 04:44:02;;;;;;;25.80;2.63;;;;;;;20.56;44.33;101556.22;5029712;28;20038;-77
2022/09/17 04:46:28;;;;;;;12.63;2.00;;;;;;;20.82;43.49;101568.47;5025250;28;20116;-77
2022/09/17 04:48:53;;;;;;;4.47;0.93;;;;;;;16.64;50.06;101595.88;5031566;28;20041;-77
2022/09/17 04:51:19;;;;;;;11.13;1.83;;;;;;;17.64;50.55;101596.00;5026768;28;20119;-78
2022/09/17 04:53:44;;;;;;;9.60;1.30;;;;;;;17.79;51.34;101594.72;5031114;28;20029;-78
2022/09/17 04:56:10;;;;;;;9.30;1.43;;;;;;;17.51;51.25;101593.75;5029608;28;20028;-78
2022/09/17 04:58:35;;;;;;;8.20;0.80;;;;;;;17.91;50.02;101584.69;5022724;28;20021;-77
2022/09/17 05:01:00;;;;;;;7.40;1.03;;;;;;;17.33;50.44;101590.69;5026984;28;20026;-77
2022/09/17 05:03:26;;;;;;;4.43;0.70;;;;;;;16.88;52.51;101590.91;5014795;28;20052;-77
2022/09/17 05:05:51;;;;;;;5.67;1.00;;;;;;;16.77;53.02;101586.75;5021975;28;20026;-78
2022/09/17 05:08:16;;;;;;;3.80;0.70;;;;;;;18.20;49.37;101588.28;5016988;28;20494;-78
2022/09/17 05:10:42;;;;;;;7.50;1.17;;;;;;;17.94;48.81;101587.28;5043893;28;20129;-78
2022/09/17 05:13:07;;;;;;;8.17;0.80;;;;;;;18.40;46.68;101575.31;5012767;28;20033;-77
2022/09/17 05:15:32;;;;;;;3.77;0.80;;;;;;;19.47;45.32;101569.19;5011619;28;20061;-77
2022/09/17 05:17:58;;;;;;;4.23;0.80;;;;;;;19.48;44.78;101570.88;5022558;28;20025;-77
2022/09/17 05:20:23;;;;;;;3.47;0.63;;;;;;;19.67;44.85;101568.44;5058936;28;20074;-77
2022/09/17 05:22:50;;;;;;;6.07;0.83;;;;;;;19.08;45.03;101575.81;5016900;28;20025;-77
2022/09/17 05:25:18;;;;;;;7.40;1.00;;;;;;;19.56;44.05;101573.28;5036542;28;20033;-77
2022/09/17 05:27:44;;;;;;;8.50;1.53;;;;;;;19.03;45.03;101574.22;5025316;28;20056;-78
2022/09/17 05:30:10;;;;;;;10.17;1.57;;;;;;;19.73;44.10;101576.19;5024910;28;20025;-77
2022/09/17 05:32:36;;;;;;;6.17;0.80;;;;;;;19.86;43.57;101573.97;5032880;28;20025;-76
2022/09/17 05:35:04;;;;;;;10.73;0.90;;;;;;;19.89;43.19;101583.59;5019725;28;20076;-76
2022/09/17 05:37:29;;;;;;;5.00;0.80;;;;;;;19.82;44.07;101586.50;5013913;28;20033;-76
2022/09/17 05:39:55;;;;;;;5.73;0.87;;;;;;;19.65;44.83;101594.16;5041261;28;20026;-76
2022/09/17 05:42:20;;;;;;;14.27;1.10;;;;;;;19.89;43.63;101595.06;5030850;28;20132;-76
2022/09/17 05:44:45;;;;;;;12.97;1.00;;;;;;;19.71;44.39;101587.78;5033336;28;20112;-76
2022/09/17 05:47:11;;;;;;;4.97;1.60;;;;;;;20.12;43.93;101594.22;5029312;28;20029;-77
2022/09/17 05:49:36;;;;;;;8.53;0.70;;;;;;;20.29;44.19;101592.69;5028906;28;20033;-76
2022/09/17 05:52:02;;;;;;;13.40;1.73;;;;;;;20.14;45.11;101588.84;5032895;28;20025;-77
2022/09/17 05:54:28;;;;;;;6.70;0.90;;;;;;;20.59;44.19;101589.78;5018522;28;20029;-76
2022/09/17 05:56:54;;;;;;;7.23;1.37;;;;;;;20.62;43.85;101592.28;5026512;28;20033;-76
2022/09/17 05:59:19;;;;;;;9.37;1.30;;;;;;;20.27;44.68;101570.69;5025760;28;20026;-77
2022/09/17 06:01:44;;;;;;;7.43;1.27;;;;;;;19.67;45.67;101579.06;5037471;28;20495;-77
2022/09/17 06:04:10;;;;;;;2.70;0.70;;;;;;;20.19;44.11;101578.06;5036957;28;20440;-77
2022/09/17 06:06:37;;;;;;;7.90;0.97;;;;;;;20.50;44.05;101583.91;5030060;28;20022;-76
2022/09/17 06:09:04;;;;;;;6.27;0.93;;;;;;;20.59;44.13;101595.06;5048146;28;20028;-77
2022/09/17 06:11:29;;;;;;;9.47;1.47;;;;;;;20.94;44.06;101622.06;5031315;28;20091;-77
2022/09/17 06:13:55;;;;;;;9.13;1.20;;;;;;;20.35;45.13;101640.25;5033047;28;20025;-77
2022/09/17 06:16:21;;;;;;;5.27;1.00;;;;;;;18.07;49.81;101636.28;5033220;28;20113;-79
2022/09/17 06:18:48;;;;;;;6.03;0.70;;;;;;;16.69;54.94;101625.66;5032831;28;20031;-79
2022/09/17 06:21:14;;;;;;;6.57;0.90;;;;;;;18.71;50.21;101606.13;5013793;28;20024;-79
2022/09/17 06:23:42;;;;;;;3.73;0.90;;;;;;;19.70;47.58;101601.94;5014920;28;20030;-78
2022/09/17 06:26:08;;;;;;;10.07;1.77;;;;;;;19.47;48.21;101601.00;5026803;28;20025;-78
2022/09/17 06:28:33;;;;;;;8.30;1.07;;;;;;;19.92;46.65;101612.66;5015074;28;20092;-77
2022/09/17 06:31:04;;;;;;;8.47;1.10;;;;;;;20.11;44.82;101608.44;5030456;28;20021;-77
2022/09/17 06:33:30;;;;;;;10.30;1.40;;;;;;;20.03;45.36;101613.16;5032480;28;20054;-77
2022/09/17 06:35:59;;;;;;;5.03;2.00;;;;;;;19.77;46.29;101616.72;5033317;28;20016;-76
2022/09/17 06:38:24;;;;;;;4.73;2.03;;;;;;;20.11;45.65;101619.03;5032911;28;20040;-77
2022/09/17 06:40:51;;;;;;;7.93;1.40;;;;;;;18.33;48.60;101637.31;5031214;28;20021;-78
2022/09/17 06:43:16;;;;;;;5.37;1.50;;;;;;;19.56;47.61;101631.63;5020655;28;20125;-79
2022/09/17 06:45:42;;;;;;;6.77;0.90;;;;;;;19.29;47.43;101655.53;5054595;28;20155;-77
2022/09/17 06:48:08;;;;;;;9.50;0.97;;;;;;;19.50;47.82;101638.84;5032359;28;20028;-77
2022/09/17 06:50:33;;;;;;;4.20;0.90;;;;;;;18.14;49.89;101637.81;5032155;28;20083;-78
2022/09/17 06:52:59;;;;;;;7.00;1.53;;;;;;;19.76;47.80;101631.78;5034632;28;20033;-76
2022/09/17 06:55:24;;;;;;;6.63;1.03;;;;;;;19.34;48.08;101632.34;5032768;28;20027;-77
2022/09/17 06:57:50;;;;;;;4.93;0.70;;;;;;;19.82;46.72;101626.28;5032357;28;20435;-76
2022/09/17 07:00:15;;;;;;;8.70;1.00;;;;;;;19.98;46.45;101618.63;5030166;28;20093;-77
2022/09/17 07:02:40;;;;;;;9.27;1.43;;;;;;;20.19;46.18;101625.84;5031460;28;20067;-76
2022/09/17 07:05:06;;;;;;;8.07;1.40;;;;;;;20.19;46.53;101616.09;5013921;28;20029;-76
2022/09/17 07:07:33;;;;;;;6.13;0.80;;;;;;;20.06;45.75;101618.34;5033521;28;20033;-76
2022/09/17 07:09:59;;;;;;;8.63;0.90;;;;;;;20.49;45.61;101614.03;5033230;28;20022;-76
2022/09/17 07:12:24;;;;;;;7.63;1.53;;;;;;;21.63;43.79;101612.94;5045613;28;20113;-76
2022/09/17 07:14:49;;;;;;;9.40;2.17;;;;;;;21.81;43.80;101597.97;5011667;28;20109;-76
2022/09/17 07:17:15;;;;;;;4.93;1.43;;;;;;;21.62;42.91;101616.53;5012828;28;20136;-76
2022/09/17 07:19:40;;;;;;;8.03;1.17;;;;;;;21.59;43.50;101622.84;5030507;28;20029;-75
2022/09/17 07:22:07;;;;;;;6.70;0.75;;;;;;;20.96;44.98;101609.56;5022942;28;20083;-76
2022/09/17 07:24:33;;;;;;;6.60;0.90;;;;;;;22.01;42.64;101623.66;5022276;28;20474;-76
2022/09/17 07:26:58;;;;;;;7.68;1.05;;;;;;;22.04;43.07;101618.19;5045220;28;20437;-76
2022/09/17 07:29:27;;;;;;;7.72;1.10;;;;;;;21.37;44.04;101612.25;5044625;28;20029;-76
2022/09/17 07:31:53;;;;;;;6.95;1.35;;;;;;;20.94;44.55;101620.25;5059574;28;20031;-76
2022/09/17 07:34:19;;;;;;;8.35;0.98;;;;;;;20.42;45.88;101617.84;5030870;28;20389;-76
2022/09/17 07:36:44;;;;;;;4.30;0.80;;;;;;;21.26;44.66;101614.50;5029787;28;20029;-76
2022/09/17 07:39:12;;;;;;;12.55;1.27;;;;;;;22.50;42.43;101609.88;5031192;28;20401;-75
2022/09/17 07:41:37;;;;;;;8.88;1.02;;;;;;;23.51;39.25;101603.97;5019284;28;20037;-76
2022/09/17 07:44:03;;;;;;;6.43;1.40;;;;;;;23.18;38.65;101603.91;5033881;28;20127;-76
2022/09/17 07:46:29;;;;;;;4.50;0.68;;;;;;;22.37;38.86;101604.28;5029368;28;20083;-77
2022/09/17 07:48:54;;;;;;;9.07;1.02;;;;;;;22.45;38.29;101607.44;5018058;28;20037;-76
2022/09/17 07:51:23;;;;;;;5.00;0.73;;;;;;;22.35;38.47;101603.47;5024042;28;20017;-77
2022/09/17 07:53:53;;;;;;;8.10;0.80;;;;;;;22.79;37.34;101615.59;5053302;28;20076;-76
2022/09/17 07:56:19;;;;;;;4.72;0.98;;;;;;;22.41;37.48;101626.28;5023273;28;20030;-76
2022/09/17 07:58:44;;;;;;;7.03;1.02;;;;;;;20.97;40.95;101643.19;5020782;28;20116;-77
2022/09/17 08:01:11;;;;;;;8.88;0.90;;;;;;;20.79;44.05;101648.31;5026213;28;20064;-79
2022/09/17 08:03:38;;;;;;;5.35;0.88;;;;;;;20.40;44.27;101640.97;5020281;28;20025;-80
2022/09/17 08:06:08;;;;;;;9.23;0.93;;;;;;;19.95;45.79;101644.41;5031736;28;20053;-80
2022/09/17 08:08:35;;;;;;;3.80;0.60;;;;;;;19.30;45.40;101633.38;5024779;28;20125;-79
2022/09/17 08:11:06;;;;;;;5.50;0.77;;;;;;;20.00;44.24;101626.50;5028501;28;20057;-78
2022/09/17 08:13:32;;;;;;;8.13;0.80;;;;;;;19.93;44.48;101635.63;5024895;28;20021;-77
2022/09/17 08:16:02;;;;;;;5.90;0.73;;;;;;;20.68;42.89;101631.94;5019600;28;20551;-76
2022/09/17 08:18:28;;;;;;;3.30;0.45;;;;;;;20.49;43.33;101629.97;5021348;28;20504;-77
2022/09/17 08:21:05;;;;;;;4.15;0.63;;;;;;;21.34;42.82;101631.00;5059501;28;20520;-77
2022/09/17 08:23:34;;;;;;;2.40;0.93;;;;;;;21.65;41.99;101621.72;5030710;28;20040;-76
2022/09/17 08:25:59;;;;;;;2.72;1.35;;;;;;;20.65;42.36;101624.06;5029410;28;20029;-76
2022/09/17 08:28:26;;;;;;;2.78;0.95;;;;;;;;;;5033181;28;20382;-76
2022/09/17 08:30:52;;;;;;;4.60;0.82;;;;;;;22.30;41.27;101640.94;5023181;28;20029;-78
2022/09/17 08:33:18;;;;;;;2.90;0.47;;;;;;;21.62;41.34;101648.44;5033187;28;20021;-76
2022/09/17 08:35:51;;;;;;;1.73;0.35;;;;;;;21.67;41.50;101651.78;5030866;28;20047;-78
2022/09/17 08:38:17;;;;;;;;;;;;;;;21.58;42.71;101647.72;5033635;28;20029;-78
2022/09/17 08:41:01;;;;;;;6.35;1.13;;;;;;;20.90;42.87;101655.84;5014006;28;19921;-79
2022/09/17 08:43:30;;;;;;;13.32;0.98;;;;;;;21.17;43.10;101648.53;5024952;28;20386;-78
2022/09/17 08:45:57;;;;;;;3.25;0.77;;;;;;;22.94;40.82;101646.81;5029152;28;20088;-79
2022/09/17 08:48:27;;;;;;;4.05;0.70;;;;;;;22.47;41.70;101652.66;5033575;28;20095;-79
2022/09/17 08:50:52;;;;;;;4.10;1.08;;;;;;;21.92;42.28;101658.69;5029594;28;20021;-79
2022/09/17 08:53:30;;;;;;;3.42;0.55;;;;;;;21.88;41.13;101649.09;5032964;28;20079;-79
2022/09/17 08:55:59;;;;;;;3.60;0.95;;;;;;;21.19;42.24;101651.13;5030499;28;20017;-79
2022/09/17 08:58:26;;;;;;;5.60;0.82;;;;;;;20.85;42.41;101647.19;5011157;28;20052;-79
2022/09/17 09:01:01;;;;;;;4.50;0.60;;;;;;;22.06;40.11;101637.59;5014590;28;20087;-80
2022/09/17 09:03:36;;;;;;;2.70;0.40;;;;;;;21.15;41.08;101654.84;5026531;28;20049;-79
2022/09/17 09:06:02;;;;;;;4.57;0.65;;;;;;;22.18;39.95;101647.69;5054605;28;20035;-80
2022/09/17 09:08:27;;;;;;;3.30;0.47;;;;;;;22.32;39.73;101648.88;5026237;28;20032;-79
2022/09/17 09:10:59;;;;;;;8.55;0.70;;;;;;;23.41;38.33;101648.06;5031809;28;20025;-79
2022/09/17 09:13:28;;;;;;;4.97;0.70;;;;;;;23.48;38.88;101656.59;5032355;28;20025;-79
2022/09/17 09:16:05;;;;;;;5.25;0.98;;;;;;;22.65;40.02;101645.56;5014578;28;20058;-79
2022/09/17 09:18:35;;;;;;;4.90;0.80;;;;;;;22.82;40.40;101661.63;5030095;28;20116;-79
2022/09/17 09:21:19;;;;;;;6.68;0.93;;;;;;;21.55;42.31;101660.31;5047369;28;20548;-79
2022/09/17 09:23:57;;;;;;;8.73;0.98;;;;;;;21.26;43.72;101670.34;5049576;28;20025;-80
2022/09/17 09:26:45;;;;;;;4.35;0.50;;;;;;;20.27;45.81;101676.84;5018614;28;20072;-80
2022/09/17 09:29:10;;;;;;;1.88;0.40;;;;;;;20.83;44.52;101671.16;5033830;28;20091;-79
2022/09/17 09:31:57;;;;;;;4.43;0.57;;;;;;;21.47;43.26;101661.47;5034528;28;20025;-79
2022/09/17 09:34:26;;;;;;;1.52;0.55;;;;;;;20.88;43.91;101667.44;5031799;28;20033;-80
2022/09/17 09:37:05;;;;;;;2.20;0.73;;;;;;;21.14;44.22;101680.56;5035191;28;20493;-80
2022/09/17 09:39:34;;;;;;;7.20;0.98;;;;;;;21.19;42.81;101670.59;5034477;28;20380;-79
2022/09/17 09:42:27;;;;;;;8.43;1.25;;;;;;;21.66;43.41;101676.66;5033830;28;20022;-81
2022/09/17 09:44:53;;;;;;;;;;;;;;;22.43;41.57;101672.38;5024716;28;20100;-81
2022/09/17 09:47:21;;;;;;;6.22;1.00;;;;;;;21.87;43.51;101674.84;5034711;28;20379;-81
2022/09/17 09:49:47;;;;;;;4.13;0.73;;;;;;;21.48;43.47;101673.81;5030188;28;20507;-81
2022/09/17 09:52:35;;;;;;;5.55;2.72;;;;;;;22.30;42.59;101666.72;5047415;28;20139;-80
2022/09/17 09:55:28;;;;;;;8.52;1.77;;;;;;;22.29;43.23;101665.00;5030512;28;20018;-80
2022/09/17 09:58:23;;;;;;;9.25;2.05;;;;;;;22.66;41.76;101657.97;5065381;28;20420;-80
2022/09/17 10:00:50;;;;;;;8.60;1.13;;;;;;;23.19;42.14;101654.50;5033589;28;20044;-80
2022/09/17 10:03:20;;;;;;;10.07;3.45;;;;;;;22.94;42.21;101644.13;5035451;28;20037;-78
2022/09/17 10:05:52;;;;;;;8.57;1.00;;;;;;;22.31;43.46;101642.69;5036704;28;20037;-78
2022/09/17 10:08:17;;;;;;;7.57;1.10;;;;;;;22.97;42.30;101635.13;5056615;28;20035;-78
2022/09/17 10:11:12;;;;;;;6.13;0.98;;;;;;;24.78;39.34;101629.13;5019522;28;20026;-78
2022/09/17 10:13:39;;;;;;;9.27;2.30;;;;;;;24.92;38.50;101646.19;5004909;28;20040;-78
2022/09/17 10:16:24;;;;;;;10.50;2.50;;;;;;;23.71;42.04;101666.09;5014157;28;20485;-82
2022/09/17 10:19:17;;;;;;;10.13;1.73;;;;;;;20.80;48.25;101676.59;5033212;28;20025;-78
2022/09/17 10:21:42;;;;;;;9.52;1.20;;;;;;;21.12;46.86;101671.78;5033240;28;20544;-77
2022/09/17 10:24:30;;;;;;;14.82;1.73;;;;;;;20.94;47.66;101661.91;5032468;28;20150;-80
2022/09/17 10:27:05;;;;;;;9.85;2.28;;;;;;;21.75;47.49;101670.94;5037584;28;20032;-79
2022/09/17 10:29:32;;;;;;;17.42;2.00;;;;;;;21.91;45.93;101657.78;5046678;28;20120;-78
2022/09/17 10:31:58;;;;;;;10.05;1.52;;;;;;;22.28;44.97;101653.47;5046158;28;20029;-79
2022/09/17 10:34:26;;;;;;;11.93;2.30;;;;;;;22.56;44.02;101651.34;5014106;28;20025;-78
2022/09/17 10:36:54;;;;;;;10.90;1.35;;;;;;;20.29;45.54;101659.06;5039053;28;20409;-79
2022/09/17 10:39:43;;;;;;;8.68;1.20;;;;;;;20.56;45.06;101646.53;5045949;28;20030;-79
2022/09/17 10:42:16;;;;;;;15.70;2.30;;;;;;;21.50;43.29;101648.03;5020293;28;20041;-79
2022/09/17 10:44:54;;;;;;;4.88;0.95;;;;;;;20.66;42.89;101647.03;5033024;28;20032;-78
2022/09/17 10:47:28;;;;;;;7.60;1.13;;;;;;;22.18;40.71;101642.38;5019249;28;20545;-78
2022/09/17 10:50:00;;;;;;;4.45;0.93;;;;;;;21.65;41.06;101653.63;5032495;28;20033;-78
2022/09/17 10:52:25;;;;;;;3.72;0.68;;;;;;;21.17;40.92;101653.84;5032416;28;20060;-78
2022/09/17 10:55:21;;;;;;;6.43;1.02;;;;;;;21.95;40.50;101650.56;5032872;28;20069;-77
2022/09/17 10:58:22;;;;;;;8.05;1.10;;;;;;;22.98;39.18;101639.53;5031465;28;20025;-78
2022/09/17 11:01:01;;;;;;;13.75;2.08;;;;;;;24.13;37.57;101635.41;5028344;28;20037;-78
2022/09/17 11:03:50;;;;;;;11.73;1.20;;;;;;;23.72;38.68;101643.78;5032777;28;20030;-79
2022/09/17 11:06:48;;;;;;;6.60;1.50;;;;;;;23.08;38.08;101632.81;5041721;28;20025;-78
2022/09/17 11:09:29;;;;;;;11.60;1.65;;;;;;;22.12;39.76;101632.03;5028809;28;20133;-78
2022/09/17 11:12:19;;;;;;;14.85;1.42;;;;;;;22.51;39.55;101627.59;5029315;28;20037;-79
2022/09/17 11:14:45;;;;;;;12.93;1.88;;;;;;;23.03;38.78;101629.50;5028237;28;20073;-78
2022/09/17 11:17:27;;;;;;;14.27;1.75;;;;;;;23.53;38.18;101628.78;5041920;28;20371;-79
2022/09/17 11:20:08;;;;;;;8.32;1.20;;;;;;;22.88;35.56;101631.13;5029987;28;20440;-77
2022/09/17 11:22:56;;;;;;;6.28;1.38;;;;;;;23.34;32.75;101622.63;5031731;28;20102;-78
2022/09/17 11:25:41;;;;;;;7.43;1.13;;;;;;;23.56;32.68;101611.72;5031477;28;20059;-78
2022/09/17 11:28:32;;;;;;;12.10;1.60;;;;;;;22.77;33.75;101615.66;5031310;28;20100;-78
2022/09/17 11:31:16;;;;;;;7.88;1.30;;;;;;;22.31;34.64;101612.50;5031950;28;20029;-77
2022/09/17 11:33:47;;;;;;;15.30;1.20;;;;;;;21.75;35.62;101606.19;5030969;28;20128;-77
2022/09/17 11:36:18;;;;;;;16.73;3.55;;;;;;;23.03;33.85;101624.19;5031429;28;20029;-78
2022/09/17 11:38:49;;;;;;;14.85;1.65;;;;;;;22.82;34.11;101620.75;5023937;28;20030;-78
2022/09/17 11:41:27;;;;;;;22.02;1.92;;;;;;;22.79;35.59;101637.78;5012120;28;20064;-79